Terminal Aerodrome Forecast
Issued by NWS Omaha/Valley, NE

Home | Current Version | Previous Version | Text Only | Print | Product List | Glossary Off
Versions: 1 2 3 4 5 6 7 8 9 10 11 12 13 14 15 16 17 18 19 20 21 22 23

000
FTUS43 KOAX 260404 AAB
TAFOFK
TAF AMD
KOFK 260404Z 2604/2624 04005KT 6SM BR OVC005
      TEMPO 2604/2608 1 1/2SM BR OVC003
     FM260800 03004KT 1SM BR OVC003
      TEMPO 2610/2614 1/2SM FG OVC002
     FM261600 02004KT 3SM BR OVC005
     FM262000 36006KT P6SM OVC012=

USA.gov is the U.S. government's official web portal to all federal, state and local government web resources and services.